Metar Cercanos

 

LEPA - Palma De Mallorc, Spain
Distance from station: ONO 38km
Actualización: 14/08/2018 19:30
Parcialmente nuboso
Parcialmente nuboso
 Viento del NE
Viento: NE 20 km/h
Temperatura: 28°C
Indice Calor: 30°C
Rocío: 21°C
Humedad: 66%
Barómetro: 1015 hPa
Clouds: Parcialmente nuboso
Visibility: 10 km
Cloud details: Few Clouds 762 m
Parcialmente nuboso 1280 m
2018/08/14 17:30 LEPA 141730Z 05011KT 9999 FEW025 SCT042 28/21 Q1015 NOSIG
LEMH - Mahon/Menorca Is, Spain
Distance from station: ENE 105km
Actualización: 14/08/2018 19:30
Few Clouds
Few Clouds
 Viento del NE
Viento: NE 22 km/h
Temperatura: 26°C
Rocío: 18°C
Humedad: 61%
Barómetro: 1016 hPa
Clouds: Few Clouds
Visibility: 10 km
Cloud details: Few Clouds 914 m
2018/08/14 17:30 LEMH 141730Z 04012KT 9999 FEW030 26/18 Q1016
 
LEIB - Ibiza/Es Codola, Spain
Distance from station: OSO 165km
Actualización: 14/08/2018 19:30
Parcialmente nuboso
Parcialmente nuboso
 Viento del E
Viento: E 13 km/h
Temperatura: 29°C
Indice Calor: 32°C
Rocío: 22°C
Humedad: 66%
Barómetro: 1015 hPa
Clouds: Parcialmente nuboso
Visibility: 10 km
Cloud details: Parcialmente nuboso 1067 m
2018/08/14 17:30 LEIB 141730Z 08007KT 060V120 9999 SCT035 29/22 Q1015 NOSIG
LEBL - Barcelona Airpor, Spain
Distance from station: NNO 225km
Actualización: 14/08/2018 19:30
Few Clouds
Few Clouds
 Viento del S
Viento: S 17 km/h
Temperatura: 27°C
Indice Calor: 29°C
Rocío: 20°C
Humedad: 66%
Barómetro: 1016 hPa
Clouds: Few Clouds
Visibility: 10 km
Cloud details: Few Clouds 610 m
2018/08/14 17:30 LEBL 141730Z 18009KT 150V210 9999 FEW020 27/20 Q1016 NOSIG
 
LEVC - Valencia (civ/Mi, Spain
Distance from station: NO 188km
Actualización: 14/08/2018 19:30
Few Clouds
Few Clouds
 Viento del ESE
Viento: ESE 13 km/h
Temperatura: 28°C
Indice Calor: 29°C
Rocío: 20°C
Humedad: 62%
Barómetro: 1015 hPa
Clouds: Few Clouds
Visibility: 10 km
Cloud details: Few Clouds 853 m
2018/08/14 17:30 LEVC 141730Z 11007KT 080V140 9999 FEW028 28/20 Q1015 NOSIG
LEGE - Gerona/Costa Bra, Spain
Distance from station: N 276km
Actualización: 14/08/2018 19:30
Parcialmente nuboso
Parcialmente nuboso
 Viento del S
Viento: S 19 km/h
Temperatura: 25°C
Rocío: 19°C
Humedad: 69%
Barómetro: 1016 hPa
Clouds: Parcialmente nuboso
Visibility: 10 km
Cloud details: Parcialmente nuboso 1219 m
2018/08/14 17:30 LEGE 141730Z 19010KT 9999 SCT040 25/19 Q1016
 
LEAL - Alicante/El Alte, Spain
Distance from station: OSO 344km
Actualización: 14/08/2018 19:30
Few Clouds
Few Clouds
 Viento del E
Viento: E 20 km/h
Temperatura: 28°C
Indice Calor: 31°C
Rocío: 23°C
Humedad: 74%
Barómetro: 1015 hPa
Clouds: Few Clouds
Visibility: 10 km
Cloud details: Few Clouds 1372 m
2018/08/14 17:30 LEAL 141730Z 09011KT 060V120 9999 FEW045 28/23 Q1015 NOSIG
LEAM - Almeria Airport, Spain
Distance from station: SSO 56km
Actualización: 14/08/2018 19:30
Despejado
Despejado
 Viento del SSO
Viento: SSO 7 km/h
Temperatura: 27°C
Indice Calor: 31°C
Rocío: 24°C
Humedad: 84%
Barómetro: 1014 hPa
Resumen: Despejado
Visibility: greater than 10 km
2018/08/14 17:30 LEAM 141730Z 21004KT 160V250 CAVOK 27/24 Q1014
 
LEZG - Zaragoza (mil/Ci, Spain
Distance from station: NO 431km
Actualización: 14/08/2018 19:30
Despejado
Despejado
 Viento del NO
Viento: NO 44 km/h
Temperatura: 26°C
Rocío: 12°C
Humedad: 42%
Barómetro: 1017 hPa
Resumen: Despejado
Visibility: greater than 10 km
2018/08/14 17:30 LEZG 141730Z 31024KT CAVOK 26/12 Q1017
LEMD - Madrid/Barajas, Spain
Distance from station: ONO 234km
Actualización: 14/08/2018 19:30
Despejado
Despejado
 Viento del ONO
Viento: ONO 4 km/h
Temperatura: 34°C
Rocío: 10°C
Humedad: 23%
Barómetro: 1016 hPa
Resumen: Despejado
Visibility: greater than 10 km
2018/08/14 17:30 LEMD 141730Z 30002KT CAVOK 34/10 Q1016 NOSIG
 
LEGR - Granada Airport, Spain
Distance from station: OSO 62km
Actualización: 14/08/2018 19:30
Few Clouds
Few Clouds
 Viento del O
Viento: O 19 km/h
Temperatura: 34°C
Rocío: 10°C
Humedad: 23%
Barómetro: 1016 hPa
Clouds: Few Clouds
Visibility: 10 km
Cloud details: Few Clouds 1829 m
2018/08/14 17:30 LEGR 141730Z 28010KT 250V320 9999 FEW060 34/10 Q1016
LEMG - Malaga (civ/Mil), Spain
Distance from station: OSO 227km
Actualización: 14/08/2018 19:30
Few Clouds
Few Clouds
 Viento del ESE
Viento: ESE 17 km/h
Temperatura: 28°C
Indice Calor: 28°C
Rocío: 17°C
Humedad: 51%
Barómetro: 1014 hPa
Clouds: Few Clouds
Visibility: 10 km
Cloud details: Few Clouds 914 m
2018/08/14 17:30 LEMG 141730Z 11009KT 9999 FEW030 28/17 Q1014 NOSIG
 
LEZL - Sevilla (civ/Mil, Spain
Distance from station: S 318km
Actualización: 14/08/2018 19:30
Despejado
Despejado
 Viento del SO
Viento: SO 22 km/h
Temperatura: 32°C
Rocío: 12°C
Humedad: 29%
Barómetro: 1014 hPa
Resumen: Despejado
Visibility: greater than 10 km
2018/08/14 17:30 LEZL 141730Z 23012KT 190V260 CAVOK 32/12 Q1014 NOSIG
LEVT - Vitoria, Spain
Distance from station: NO 226km
Actualización: 14/08/2018 19:30
Muy nuboso
Muy nuboso
 Viento del NNE
Viento: NNE 20 km/h
Temperatura: 19°C
Rocío: 14°C
Humedad: 73%
Barómetro: 1023 hPa
Clouds: Muy nuboso
Visibility: 10 km
Cloud details: Parcialmente nuboso 762 m
Muy nuboso 1372 m
2018/08/14 17:30 LEVT 141730Z 02011KT 9999 SCT025 BKN045 19/14 Q1023
 
LEBB - Bilbao/Sondica, Spain
Distance from station: NNO 235km
Actualización: 14/08/2018 19:30
Muy nuboso
Muy nuboso
 Viento del NE
Viento: NE 13 km/h
Temperatura: 23°C
Rocío: 16°C
Humedad: 65%
Barómetro: 1022 hPa
Clouds: Muy nuboso
Visibility: 10 km
Cloud details: Few Clouds 1219 m
Muy nuboso 1463 m
2018/08/14 17:30 LEBB 141730Z 04007KT 350V100 9999 FEW040 BKN048 23/16 Q1022 NOSIG
LESO - San Sebastian/Fu, Spain
Distance from station: N 231km
Actualización: 14/08/2018 19:30
Parcialmente nuboso
Parcialmente nuboso
 Viento del N
Viento: N 9 km/h
Temperatura: 23°C
Rocío: 17°C
Humedad: 69%
Barómetro: 1022 hPa
Clouds: Parcialmente nuboso
Visibility: 10 km
Cloud details: Parcialmente nuboso 884 m
2018/08/14 17:30 LESO 141730Z 35005KT 290V060 9999 SCT029 23/17 Q1022
 
LEVD - Valladolid(Mil/C, Spain
Distance from station: ONO 239km
Actualización: 14/08/2018 19:30
Despejado
Despejado
 Viento del E
Viento: E 22 km/h
Temperatura: 25°C
Rocío: 9°C
Humedad: 36%
Barómetro: 1021 hPa
Resumen: Despejado
Visibility: greater than 10 km
2018/08/14 17:30 LEVD 141730Z 08012KT 050V110 CAVOK 25/09 Q1021
LESA - Salamanca (civ/M, Spain
Distance from station: ONO 349km
Actualización: 14/08/2018 19:30
Despejado
Despejado
 Viento del ENE
Viento: ENE 11 km/h
Temperatura: 29°C
Rocío: 7°C
Humedad: 25%
Barómetro: 1020 hPa
Resumen: Despejado
Visibility: greater than 10 km
2018/08/14 17:30 LESA 141730Z 07006KT 040V110 CAVOK 29/07 Q1020
 
LEXJ - Santander/Paraya, Spain
Distance from station: NNO 247km
Actualización: 14/08/2018 19:30
Parcialmente nuboso
Parcialmente nuboso
 Viento del NE
Viento: NE 9 km/h
Temperatura: 23°C
Rocío: 17°C
Humedad: 69%
Barómetro: 1022 hPa
Clouds: Parcialmente nuboso
Visibility: 10 km
Cloud details: Parcialmente nuboso 853 m
2018/08/14 17:30 LEXJ 141730Z 05005KT 350V120 9999 SCT028 23/17 Q1022
LEAS - Asturias/Aviles, Spain
Distance from station: NO 214km
Actualización: 14/08/2018 19:30
Parcialmente nuboso
Parcialmente nuboso
 Viento del E
Viento: E 17 km/h
Temperatura: 21°C
Rocío: 17°C
Humedad: 78%
Barómetro: 1022 hPa
Clouds: Parcialmente nuboso
Visibility: 10 km
Cloud details: Parcialmente nuboso 640 m
2018/08/14 17:30 LEAS 141730Z 08009KT 050V120 9999 SCT021 21/17 Q1022 NOSIG
 
LECO - La Coruna/Alvedr, Spain
Distance from station: ONO 222km
Actualización: 14/08/2018 19:30
Despejado
Despejado
 Viento del N
Viento: N 11 km/h
Temperatura: 25°C
Rocío: 18°C
Humedad: 65%
Barómetro: 1019 hPa
Resumen: Despejado
Visibility: greater than 10 km
2018/08/14 17:30 LECO 141730Z 36006KT 320V070 CAVOK 25/18 Q1019 NOSIG
LEVX - Vigo/Peinador, Spain
Distance from station: O 214km
Actualización: 14/08/2018 19:30
Despejado
Despejado
 Viento del OSO
Viento: OSO 13 km/h
Temperatura: 30°C
Indice Calor: 31°C
Rocío: 18°C
Humedad: 49%
Barómetro: 1017 hPa
Resumen: Despejado
Visibility: greater than 10 km
2018/08/14 17:30 LEVX 141730Z 25007KT CAVOK 30/18 Q1017 NOSIG